createdAt,value
2019-05-17T00:00:07.991Z,10.50
2019-05-17T00:02:37.398Z,10.33
2019-05-17T00:05:07.092Z,9.57
2019-05-17T00:07:36.947Z,10.00
2019-05-17T00:10:06.970Z,10.23
2019-05-17T00:12:36.819Z,9.80
2019-05-17T00:15:08.111Z,9.80
2019-05-17T00:17:37.650Z,9.90
2019-05-17T00:20:08.147Z,10.00
2019-05-17T00:22:36.810Z,9.30
2019-05-17T00:25:07.471Z,8.90
2019-05-17T00:27:36.883Z,8.23
2019-05-17T00:30:08.411Z,10.10
2019-05-17T00:32:37.062Z,10.57
2019-05-17T00:35:07.294Z,10.00
2019-05-17T00:37:37.238Z,10.23
2019-05-17T00:40:07.662Z,11.03
2019-05-17T00:42:37.213Z,11.47
2019-05-17T00:45:07.490Z,12.10
2019-05-17T00:47:37.528Z,12.90
2019-05-17T00:50:07.802Z,12.10
2019-05-17T00:52:36.796Z,13.80
2019-05-17T00:55:08.899Z,13.60
2019-05-17T00:57:37.310Z,13.87
2019-05-17T01:00:09.054Z,14.20
2019-05-17T01:02:37.450Z,14.70
2019-05-17T01:05:08.083Z,13.97
2019-05-17T01:07:37.613Z,14.40
2019-05-17T01:10:08.141Z,14.40
2019-05-17T01:12:36.804Z,15.90
2019-05-17T01:15:07.616Z,16.00
2019-05-17T01:17:36.594Z,17.90
2019-05-17T01:20:09.036Z,17.03
2019-05-17T01:22:37.439Z,17.70
2019-05-17T01:25:07.388Z,19.90
2019-05-17T01:27:37.983Z,20.03
2019-05-17T01:30:07.998Z,22.57
2019-05-17T01:32:37.364Z,24.20
2019-05-17T01:35:07.475Z,24.20
2019-05-17T01:37:36.916Z,23.63
2019-05-17T01:40:07.391Z,21.37
2019-05-17T01:42:37.475Z,23.30
2019-05-17T01:45:07.367Z,22.07
2019-05-17T01:47:36.805Z,21.23
2019-05-17T01:50:08.795Z,22.00
2019-05-17T01:52:37.266Z,23.67
2019-05-17T01:55:07.579Z,23.60
2019-05-17T01:57:36.999Z,23.97
2019-05-17T02:00:12.499Z,24.47
2019-05-17T02:02:47.093Z,25.87
2019-05-17T02:05:17.294Z,26.83
2019-05-17T02:07:46.594Z,22.67
2019-05-17T02:10:16.760Z,24.80
2019-05-17T02:12:48.777Z,26.57
2019-05-17T02:15:16.648Z,24.77
2019-05-17T02:17:46.881Z,26.37
2019-05-17T02:20:17.011Z,26.83
2019-05-17T02:22:47.326Z,27.73
2019-05-17T02:25:17.627Z,25.53
2019-05-17T02:27:46.031Z,25.40
2019-05-17T02:30:15.194Z,30.03
2019-05-17T02:32:44.739Z,28.87
2019-05-17T02:35:14.652Z,27.53
2019-05-17T02:37:43.832Z,28.67
2019-05-17T02:40:14.704Z,26.80
2019-05-17T02:42:43.446Z,27.63
2019-05-17T02:45:13.319Z,28.10
2019-05-17T02:47:43.729Z,26.43
2019-05-17T02:50:13.992Z,29.93
2019-05-17T02:52:43.809Z,30.43
2019-05-17T02:55:13.247Z,28.93
2019-05-17T02:57:43.426Z,31.47
2019-05-17T03:00:13.703Z,28.93
2019-05-17T03:02:43.377Z,30.07
2019-05-17T03:05:13.029Z,31.10
2019-05-17T03:07:44.068Z,29.93
2019-05-17T03:10:23.014Z,30.53
2019-05-17T03:12:44.517Z,30.40
2019-05-17T03:15:13.239Z,30.20
2019-05-17T03:17:43.347Z,28.40
2019-05-17T03:20:13.173Z,33.53
2019-05-17T03:22:43.989Z,35.13
2019-05-17T03:25:13.699Z,31.90
2019-05-17T03:27:42.983Z,30.60
2019-05-17T03:30:17.030Z,30.80
2019-05-17T03:32:46.901Z,30.80
2019-05-17T03:35:16.796Z,29.90
2019-05-17T03:37:43.971Z,34.10
2019-05-17T03:40:24.939Z,31.37
2019-05-17T03:42:43.552Z,30.97
2019-05-17T03:45:13.710Z,30.10
2019-05-17T03:47:44.575Z,31.83
2019-05-17T03:50:13.985Z,29.87
2019-05-17T03:52:44.546Z,31.20
2019-05-17T03:55:13.516Z,30.27
2019-05-17T03:57:44.008Z,29.00
2019-05-17T04:00:13.994Z,31.73
2019-05-17T04:02:44.499Z,31.53
2019-05-17T04:05:14.512Z,30.57
2019-05-17T04:07:43.748Z,29.73
2019-05-17T04:10:15.251Z,31.30
2019-05-17T04:12:44.254Z,30.40
2019-05-17T04:15:13.759Z,31.90
2019-05-17T04:17:43.810Z,30.63
2019-05-17T04:20:13.918Z,30.27
2019-05-17T04:22:44.340Z,30.27
2019-05-17T04:25:13.724Z,31.60
2019-05-17T04:27:43.642Z,31.97
2019-05-17T04:30:13.251Z,31.07
2019-05-17T04:32:44.370Z,30.93
2019-05-17T04:35:13.860Z,29.40
2019-05-17T04:37:44.818Z,29.53
2019-05-17T04:40:14.272Z,29.60
2019-05-17T04:42:44.285Z,29.13
2019-05-17T04:45:13.456Z,30.70
2019-05-17T04:47:44.573Z,29.97
2019-05-17T04:50:14.186Z,33.50
2019-05-17T04:52:43.459Z,29.97
2019-05-17T04:55:13.707Z,30.87
2019-05-17T04:57:43.739Z,30.23
2019-05-17T05:00:13.379Z,28.53
2019-05-17T05:02:43.757Z,28.00
2019-05-17T05:05:16.820Z,29.47
2019-05-17T05:07:45.223Z,28.67
2019-05-17T05:10:14.481Z,28.90
2019-05-17T05:12:43.994Z,31.00
2019-05-17T05:15:16.135Z,29.17
2019-05-17T05:17:44.557Z,28.63
2019-05-17T05:20:13.768Z,28.03
2019-05-17T05:22:42.933Z,29.57
2019-05-17T05:25:12.843Z,28.13
2019-05-17T05:27:42.767Z,27.27
2019-05-17T05:30:12.192Z,26.43
2019-05-17T05:32:42.650Z,27.40
2019-05-17T05:35:12.429Z,28.53
2019-05-17T05:37:42.344Z,25.40
2019-05-17T05:40:12.798Z,32.07
2019-05-17T05:42:42.611Z,25.63
2019-05-17T05:45:12.809Z,26.50
2019-05-17T05:47:42.478Z,27.43
2019-05-17T05:50:12.526Z,27.00
2019-05-17T05:52:42.392Z,25.77
2019-05-17T05:55:12.414Z,23.93
2019-05-17T05:57:42.075Z,25.33
2019-05-17T06:00:13.042Z,24.23
2019-05-17T06:02:42.062Z,24.73
2019-05-17T06:05:14.666Z,23.63
2019-05-17T06:07:41.794Z,24.00
2019-05-17T06:10:12.879Z,22.10
2019-05-17T06:12:43.331Z,21.57
2019-05-17T06:15:12.519Z,22.43
2019-05-17T06:17:42.775Z,23.67
2019-05-17T06:20:12.080Z,26.20
2019-05-17T06:22:42.872Z,23.13
2019-05-17T06:25:15.073Z,21.07
2019-05-17T06:27:41.621Z,21.73
2019-05-17T06:30:12.661Z,20.20
2019-05-17T06:32:43.176Z,22.63
2019-05-17T06:35:12.537Z,20.90
2019-05-17T06:37:42.269Z,21.07
2019-05-17T06:40:12.949Z,22.17
2019-05-17T06:42:45.301Z,22.90
2019-05-17T06:45:13.874Z,20.97
2019-05-17T06:47:42.818Z,21.40
2019-05-17T06:50:14.248Z,20.93
2019-05-17T06:52:43.378Z,18.77
2019-05-17T06:55:13.687Z,17.80
2019-05-17T06:57:43.386Z,16.57
2019-05-17T07:00:19.210Z,18.67
2019-05-17T07:02:42.468Z,16.93
2019-05-17T07:05:12.555Z,16.63
2019-05-17T07:07:40.971Z,17.43
2019-05-17T07:10:11.147Z,16.00
2019-05-17T07:12:54.600Z,15.30
2019-05-17T07:15:10.819Z,16.13
2019-05-17T07:17:40.030Z,19.20
2019-05-17T07:20:10.301Z,16.73
2019-05-17T07:22:40.813Z,14.60
2019-05-17T07:25:10.772Z,17.33
2019-05-17T07:27:44.832Z,14.33
2019-05-17T07:30:10.567Z,13.63
2019-05-17T07:32:40.603Z,13.40
2019-05-17T07:35:10.669Z,15.03
2019-05-17T07:37:39.960Z,13.37
2019-05-17T07:40:10.812Z,13.93
2019-05-17T07:42:39.741Z,13.40
2019-05-17T07:45:10.176Z,13.67
2019-05-17T07:47:40.370Z,12.73
2019-05-17T07:50:11.479Z,13.67
2019-05-17T07:52:40.172Z,12.57
2019-05-17T07:55:10.999Z,14.20
2019-05-17T07:57:40.959Z,17.40
2019-05-17T08:00:10.501Z,12.33
2019-05-17T08:02:40.200Z,12.70
2019-05-17T08:05:10.521Z,12.73
2019-05-17T08:07:40.513Z,14.00
2019-05-17T08:10:10.895Z,12.37
2019-05-17T08:12:40.589Z,11.77
2019-05-17T08:15:11.120Z,11.57
2019-05-17T08:17:39.972Z,13.20
2019-05-17T08:20:10.250Z,10.73
2019-05-17T08:22:39.850Z,11.47
2019-05-17T08:25:10.235Z,12.50
2019-05-17T08:27:40.661Z,13.07
2019-05-17T08:30:10.635Z,12.40
2019-05-17T08:32:40.853Z,11.27
2019-05-17T08:35:11.296Z,13.67
2019-05-17T08:37:42.368Z,11.87
2019-05-17T08:40:10.854Z,10.20
2019-05-17T08:42:40.708Z,11.47
2019-05-17T08:45:09.800Z,10.80
2019-05-17T08:47:39.741Z,11.77
2019-05-17T08:50:11.186Z,10.97
2019-05-17T08:52:40.295Z,11.60
2019-05-17T08:55:09.892Z,10.30
2019-05-17T08:57:40.129Z,10.30
2019-05-17T09:00:10.683Z,13.57
2019-05-17T09:02:40.956Z,11.30
2019-05-17T09:05:10.069Z,10.27
2019-05-17T09:07:40.140Z,9.20
2019-05-17T09:10:10.166Z,8.30
2019-05-17T09:12:40.960Z,7.93
2019-05-17T09:15:10.023Z,9.07
2019-05-17T09:17:39.582Z,8.27
2019-05-17T09:20:10.670Z,5.80
2019-05-17T09:22:39.663Z,5.47
2019-05-17T09:25:13.548Z,7.67
2019-05-17T09:27:39.937Z,5.10
2019-05-17T09:30:09.607Z,5.80
2019-05-17T09:32:40.493Z,5.87
2019-05-17T09:35:10.078Z,6.30
2019-05-17T09:37:41.406Z,5.30
2019-05-17T09:40:09.588Z,6.03
2019-05-17T09:42:40.815Z,5.60
2019-05-17T09:45:09.905Z,6.47
2019-05-17T09:47:39.643Z,6.77
2019-05-17T09:50:09.896Z,6.83
2019-05-17T09:52:40.642Z,7.73
2019-05-17T09:55:09.949Z,5.83
2019-05-17T09:57:40.967Z,5.47
2019-05-17T10:00:10.063Z,6.13
2019-05-17T10:02:40.130Z,5.43
2019-05-17T10:05:10.648Z,6.23
2019-05-17T10:07:40.251Z,5.30
2019-05-17T10:10:10.663Z,6.60
2019-05-17T10:12:40.344Z,7.50
2019-05-17T10:15:09.974Z,8.93
2019-05-17T10:17:38.749Z,8.37
2019-05-17T10:20:07.456Z,6.87
2019-05-17T10:22:35.929Z,7.67
2019-05-17T10:25:06.153Z,7.90
2019-05-17T10:27:34.535Z,6.83
2019-05-17T10:30:04.184Z,7.27
2019-05-17T10:32:32.575Z,7.43
2019-05-17T10:35:00.985Z,7.37
2019-05-17T10:37:30.253Z,9.93
2019-05-17T10:39:58.870Z,7.27
2019-05-17T10:42:27.266Z,12.30
2019-05-17T10:44:55.682Z,8.73
2019-05-17T10:47:24.083Z,7.67
2019-05-17T10:49:52.483Z,6.83
2019-05-17T10:52:20.963Z,8.57
2019-05-17T10:54:49.363Z,7.27
2019-05-17T10:57:19.467Z,7.23
2019-05-17T10:59:49.765Z,8.90
2019-05-17T11:02:19.680Z,8.27
2019-05-17T11:04:50.496Z,7.27
2019-05-17T11:07:19.945Z,7.87
2019-05-17T11:09:50.854Z,7.70
2019-05-17T11:12:18.698Z,9.00
2019-05-17T11:14:52.511Z,7.20
2019-05-17T11:17:17.224Z,7.50
2019-05-17T11:19:45.623Z,7.20
2019-05-17T11:22:14.107Z,6.67
2019-05-17T11:24:42.603Z,7.13
2019-05-17T11:27:10.998Z,6.60
2019-05-17T11:29:39.422Z,6.77
2019-05-17T11:32:07.815Z,5.83
2019-05-17T11:34:36.227Z,6.67
2019-05-17T11:37:04.680Z,6.37
2019-05-17T11:39:33.071Z,5.10
2019-05-17T11:42:01.486Z,6.80
2019-05-17T11:44:29.874Z,7.80
2019-05-17T11:46:58.284Z,6.90
2019-05-17T11:49:26.672Z,6.20
2019-05-17T11:51:55.086Z,6.63
2019-05-17T11:54:23.494Z,5.90
2019-05-17T11:56:51.904Z,5.90
2019-05-17T11:59:20.307Z,6.47
2019-05-17T12:01:48.717Z,6.40
2019-05-17T12:04:17.144Z,5.67
2019-05-17T12:06:45.610Z,6.00
2019-05-17T12:09:13.998Z,6.23
2019-05-17T12:11:42.411Z,5.20
2019-05-17T12:14:10.799Z,6.20
2019-05-17T12:16:39.211Z,6.63
2019-05-17T12:19:07.606Z,5.97
2019-05-17T12:21:36.020Z,5.47
2019-05-17T12:24:04.561Z,5.47
2019-05-17T12:26:32.967Z,6.20
2019-05-17T12:29:01.363Z,7.07
2019-05-17T12:31:29.762Z,5.63
2019-05-17T12:33:58.163Z,6.70
2019-05-17T12:36:26.644Z,7.17
2019-05-17T12:38:55.045Z,5.50
2019-05-17T12:41:23.470Z,8.03
2019-05-17T12:43:51.879Z,5.83
2019-05-17T12:46:20.351Z,5.03
2019-05-17T12:48:48.757Z,5.17
2019-05-17T12:51:17.146Z,5.30
2019-05-17T12:53:45.552Z,5.27
2019-05-17T12:56:13.955Z,6.40
2019-05-17T12:58:42.363Z,5.40
2019-05-17T13:01:10.765Z,6.70
2019-05-17T13:03:39.162Z,7.30
2019-05-17T13:06:07.579Z,5.93
2019-05-17T13:08:35.983Z,5.53
2019-05-17T13:11:04.544Z,7.47
2019-05-17T13:13:33.007Z,5.47
2019-05-17T13:16:16.753Z,5.00
2019-05-17T13:18:31.532Z,4.50
2019-05-17T13:20:59.919Z,5.67
2019-05-17T13:23:28.328Z,5.07
2019-05-17T13:25:56.724Z,7.23
2019-05-17T13:28:25.126Z,5.57
2019-05-17T13:30:53.510Z,5.03
2019-05-17T13:33:21.927Z,4.43
2019-05-17T13:35:50.388Z,4.67
2019-05-17T13:38:18.799Z,4.57
2019-05-17T13:40:47.225Z,4.13
2019-05-17T13:43:15.736Z,4.20
2019-05-17T13:45:44.817Z,6.30
2019-05-17T13:48:13.550Z,4.17
2019-05-17T13:50:42.092Z,5.03
2019-05-17T13:53:10.547Z,7.60
2019-05-17T13:55:38.948Z,5.57
2019-05-17T13:58:07.363Z,4.30
2019-05-17T14:00:35.764Z,5.17
2019-05-17T14:03:04.403Z,4.20
2019-05-17T14:05:32.856Z,4.47
2019-05-17T14:08:01.228Z,4.47
2019-05-17T14:10:32.080Z,4.50
2019-05-17T14:12:59.743Z,4.30
2019-05-17T14:15:28.151Z,4.63
2019-05-17T14:17:56.619Z,4.60
2019-05-17T14:20:25.071Z,5.33
2019-05-17T14:22:53.506Z,4.80
2019-05-17T14:25:21.921Z,4.60
2019-05-17T14:27:50.347Z,3.90
2019-05-17T14:30:18.900Z,6.47
2019-05-17T14:32:47.290Z,6.00
2019-05-17T14:35:15.919Z,3.70
2019-05-17T14:37:44.394Z,4.40
2019-05-17T14:40:13.143Z,3.97
2019-05-17T14:42:41.547Z,4.20
2019-05-17T14:45:10.387Z,4.40
2019-05-17T14:47:38.783Z,4.70
2019-05-17T14:50:07.522Z,5.20
2019-05-17T14:52:35.934Z,4.90
2019-05-17T14:55:04.585Z,4.63
2019-05-17T14:57:32.976Z,5.60
2019-05-17T15:00:01.403Z,6.30
2019-05-17T15:02:29.787Z,4.50
2019-05-17T15:04:58.201Z,4.00
2019-05-17T15:07:26.590Z,5.10
2019-05-17T15:09:55.110Z,4.00
2019-05-17T15:12:28.249Z,6.53
2019-05-17T15:14:53.644Z,5.27
2019-05-17T15:17:22.040Z,3.57
2019-05-17T15:19:51.387Z,4.60
2019-05-17T15:22:20.034Z,3.47
2019-05-17T15:24:48.436Z,4.20
2019-05-17T15:27:16.836Z,5.17
2019-05-17T15:29:45.239Z,6.17
2019-05-17T15:32:13.639Z,3.73
2019-05-17T15:34:42.035Z,4.40
2019-05-17T15:37:10.497Z,4.80
2019-05-17T15:39:38.922Z,5.47
2019-05-17T15:42:07.345Z,4.53
2019-05-17T15:44:35.739Z,4.13
2019-05-17T15:47:04.214Z,4.33
2019-05-17T15:49:32.609Z,3.43
2019-05-17T15:52:01.012Z,4.13
2019-05-17T15:54:29.411Z,4.90
2019-05-17T15:56:57.810Z,4.20
2019-05-17T15:59:26.199Z,4.97
2019-05-17T16:01:54.635Z,9.33
2019-05-17T16:04:23.031Z,6.10
2019-05-17T16:06:51.435Z,6.83
2019-05-17T16:09:19.832Z,5.47
2019-05-17T16:11:48.240Z,6.07
2019-05-17T16:14:16.636Z,6.20
2019-05-17T16:16:45.055Z,5.60
2019-05-17T16:19:13.443Z,4.53
2019-05-17T16:21:41.846Z,4.77
2019-05-17T16:24:10.307Z,5.00
2019-05-17T16:26:38.717Z,5.17
2019-05-17T16:29:07.102Z,5.90
2019-05-17T16:31:35.515Z,5.73
2019-05-17T16:34:03.908Z,5.03
2019-05-17T16:36:32.315Z,5.60
2019-05-17T16:39:00.730Z,7.50
2019-05-17T16:41:29.165Z,6.00
2019-05-17T16:43:57.598Z,5.00
2019-05-17T16:46:26.078Z,5.53
2019-05-17T16:48:54.480Z,5.30
2019-05-17T16:51:22.876Z,5.07
2019-05-17T16:53:51.284Z,5.37
2019-05-17T16:56:19.670Z,6.27
2019-05-17T16:58:48.087Z,4.50
2019-05-17T17:01:16.521Z,7.37
2019-05-17T17:03:44.994Z,6.33
2019-05-17T17:06:13.431Z,5.23
2019-05-17T17:08:42.270Z,4.37
2019-05-17T17:11:10.671Z,4.10
2019-05-17T17:13:39.090Z,3.87
2019-05-17T17:16:07.493Z,6.63
2019-05-17T17:18:35.900Z,4.33
2019-05-17T17:21:04.433Z,5.53
2019-05-17T17:23:32.836Z,4.97
2019-05-17T17:26:01.219Z,6.87
2019-05-17T17:28:29.627Z,4.90
2019-05-17T17:30:58.027Z,4.40
2019-05-17T17:33:26.637Z,4.13
2019-05-17T17:35:55.086Z,4.97
2019-05-17T17:38:23.576Z,4.47
2019-05-17T17:40:51.977Z,5.10
2019-05-17T17:43:20.378Z,4.83
2019-05-17T17:45:48.820Z,4.97
2019-05-17T17:48:17.328Z,5.17
2019-05-17T17:50:46.497Z,6.90
2019-05-17T17:53:14.882Z,6.37
2019-05-17T17:55:43.296Z,8.43
2019-05-17T17:58:11.721Z,5.90
2019-05-17T18:00:40.215Z,10.50
2019-05-17T18:03:11.140Z,6.87
2019-05-17T18:05:38.755Z,5.37
2019-05-17T18:08:07.151Z,6.07
2019-05-17T18:10:37.404Z,6.40
2019-05-17T18:13:05.794Z,9.00
2019-05-17T18:15:44.937Z,8.03
2019-05-17T18:18:16.498Z,6.57
2019-05-17T18:20:45.075Z,6.17
2019-05-17T18:23:15.017Z,6.07
2019-05-17T18:25:43.414Z,7.00
2019-05-17T18:28:13.995Z,6.67
2019-05-17T18:30:44.171Z,7.37
2019-05-17T18:33:16.914Z,9.73
2019-05-17T18:35:45.411Z,11.20
2019-05-17T18:38:17.079Z,10.07
2019-05-17T18:40:45.532Z,10.07
2019-05-17T18:43:15.631Z,10.63
2019-05-17T18:45:44.100Z,8.17
2019-05-17T18:48:12.499Z,11.60
2019-05-17T18:50:42.688Z,12.00
2019-05-17T18:53:17.317Z,13.97
2019-05-17T18:55:48.599Z,12.50
2019-05-17T18:58:17.011Z,13.03
2019-05-17T19:00:45.868Z,13.67
2019-05-17T19:03:14.259Z,10.50
2019-05-17T19:05:45.293Z,10.90
2019-05-17T19:08:13.118Z,10.90
2019-05-17T19:10:43.237Z,12.47
2019-05-17T19:13:11.638Z,11.10
2019-05-17T19:15:40.047Z,12.83
2019-05-17T19:18:08.453Z,12.70
2019-05-17T19:20:37.052Z,12.97
2019-05-17T19:23:05.451Z,16.17
2019-05-17T19:25:34.040Z,13.57
2019-05-17T19:28:02.518Z,15.50
2019-05-17T19:30:32.636Z,13.00
2019-05-17T19:33:01.047Z,13.90
2019-05-17T19:35:32.491Z,14.87
2019-05-17T19:38:00.887Z,12.90
2019-05-17T19:40:29.299Z,11.60
2019-05-17T19:42:57.691Z,9.93
2019-05-17T19:45:27.867Z,12.70
2019-05-17T19:47:56.281Z,10.10
2019-05-17T19:50:24.701Z,9.67
2019-05-17T19:52:53.095Z,10.50
2019-05-17T19:55:22.269Z,10.47
2019-05-17T19:57:50.732Z,9.47
2019-05-17T20:00:19.468Z,10.83
2019-05-17T20:02:47.882Z,10.30
2019-05-17T20:05:18.019Z,9.67
2019-05-17T20:07:46.767Z,9.63
2019-05-17T20:10:15.629Z,9.47
2019-05-17T20:12:44.027Z,10.07
2019-05-17T20:15:17.695Z,9.63
2019-05-17T20:17:45.866Z,10.03
2019-05-17T20:20:16.068Z,9.33
2019-05-17T20:22:44.614Z,9.73
2019-05-17T20:25:14.437Z,9.37
2019-05-17T20:27:42.876Z,9.93
2019-05-17T20:30:11.815Z,10.30
2019-05-17T20:32:40.240Z,10.40
2019-05-17T20:35:09.076Z,10.37
2019-05-17T20:37:37.502Z,10.27
2019-05-17T20:40:06.826Z,9.27
2019-05-17T20:42:35.384Z,9.33
2019-05-17T20:45:05.620Z,11.23
2019-05-17T20:47:34.047Z,11.23
2019-05-17T20:50:02.518Z,10.67
2019-05-17T20:52:30.990Z,10.00
2019-05-17T20:54:59.391Z,10.30
2019-05-17T20:57:27.799Z,10.63
2019-05-17T20:59:56.199Z,10.13
2019-05-17T21:02:24.683Z,9.37
2019-05-17T21:04:53.070Z,9.63
2019-05-17T21:07:21.493Z,9.77
2019-05-17T21:09:49.968Z,10.03
2019-05-17T21:12:18.383Z,10.03
2019-05-17T21:14:46.783Z,11.13
2019-05-17T21:17:16.201Z,11.10
2019-05-17T21:19:44.667Z,10.60
2019-05-17T21:22:13.087Z,11.00
2019-05-17T21:24:41.502Z,11.40
2019-05-17T21:27:09.934Z,11.63
2019-05-17T21:29:38.337Z,11.47
2019-05-17T21:32:06.816Z,11.97
2019-05-17T21:34:35.219Z,12.27
2019-05-17T21:37:03.644Z,11.67
2019-05-17T21:39:32.137Z,12.70
2019-05-17T21:42:00.610Z,11.03
2019-05-17T21:44:29.007Z,10.63
2019-05-17T21:47:04.584Z,11.13
2019-05-17T21:49:27.543Z,10.97
2019-05-17T21:51:55.959Z,10.23
2019-05-17T21:54:24.551Z,11.47
2019-05-17T21:56:52.966Z,9.77
2019-05-17T21:59:21.401Z,10.67
2019-05-17T22:01:50.103Z,11.40
2019-05-17T22:04:18.520Z,11.47
2019-05-17T22:06:46.923Z,11.77
2019-05-17T22:09:15.372Z,10.90
2019-05-17T22:11:45.406Z,11.03
2019-05-17T22:14:15.361Z,11.97
2019-05-17T22:16:43.759Z,12.27
2019-05-17T22:19:12.191Z,11.77
2019-05-17T22:21:40.638Z,11.30
2019-05-17T22:24:09.118Z,11.07
2019-05-17T22:26:37.591Z,11.10
2019-05-17T22:29:06.001Z,11.70
2019-05-17T22:31:34.432Z,11.83
2019-05-17T22:34:02.845Z,11.93
2019-05-17T22:36:31.247Z,12.93
2019-05-17T22:39:01.506Z,10.80
2019-05-17T22:41:29.979Z,11.63
2019-05-17T22:43:58.397Z,11.87
2019-05-17T22:46:35.478Z,13.33
2019-05-17T22:48:56.925Z,11.77
2019-05-17T22:51:25.354Z,12.17
2019-05-17T22:53:53.771Z,12.67
2019-05-17T22:56:22.186Z,12.63
2019-05-17T22:58:50.607Z,12.70
2019-05-17T23:01:19.003Z,12.13
2019-05-17T23:03:47.434Z,11.67
2019-05-17T23:06:15.836Z,12.07
2019-05-17T23:08:45.895Z,13.00
2019-05-17T23:11:14.298Z,12.87
2019-05-17T23:13:42.707Z,12.13
2019-05-17T23:16:12.685Z,12.53
2019-05-17T23:18:42.722Z,11.97
2019-05-17T23:21:11.149Z,12.13
2019-05-17T23:23:39.531Z,12.23
2019-05-17T23:26:07.938Z,12.83
2019-05-17T23:28:36.346Z,12.33
2019-05-17T23:31:04.758Z,12.13
2019-05-17T23:33:33.168Z,11.33
2019-05-17T23:36:01.575Z,11.30
2019-05-17T23:38:29.967Z,11.43
2019-05-17T23:40:58.378Z,12.17
2019-05-17T23:43:26.807Z,11.27
2019-05-17T23:45:55.223Z,10.43
2019-05-17T23:48:23.699Z,10.90
2019-05-17T23:50:52.127Z,13.83
2019-05-17T23:53:20.514Z,14.87
2019-05-17T23:55:48.935Z,12.53
2019-05-17T23:58:17.334Z,12.67
